createdAt,value
2018-03-25T00:00:34.457Z,4.40
2018-03-25T00:03:00.697Z,4.40
2018-03-25T00:05:26.938Z,4.40
2018-03-25T00:07:53.124Z,4.30
2018-03-25T00:10:19.351Z,4.20
2018-03-25T00:12:45.544Z,4.10
2018-03-25T00:15:12.539Z,4.10
2018-03-25T00:17:38.752Z,4.00
2018-03-25T00:20:05.004Z,4.10
2018-03-25T00:22:31.230Z,4.10
2018-03-25T00:24:57.445Z,4.10
2018-03-25T00:27:23.657Z,4.10
2018-03-25T00:29:49.881Z,4.00
2018-03-25T00:32:16.072Z,4.00
2018-03-25T00:34:43.061Z,4.00
2018-03-25T00:37:09.339Z,3.90
2018-03-25T00:39:36.311Z,4.00
2018-03-25T00:42:02.560Z,3.90
2018-03-25T00:44:28.771Z,4.00
2018-03-25T00:46:55.076Z,4.00
2018-03-25T00:49:22.079Z,3.90
2018-03-25T00:51:48.522Z,3.90
2018-03-25T00:54:14.724Z,3.90
2018-03-25T00:56:40.937Z,3.90
2018-03-25T00:59:07.160Z,3.80
2018-03-25T01:01:33.401Z,3.80
2018-03-25T01:03:59.630Z,3.70
2018-03-25T01:06:25.862Z,3.70
2018-03-25T01:08:52.106Z,3.70
2018-03-25T01:11:18.332Z,3.60
2018-03-25T01:13:44.586Z,3.60
2018-03-25T01:16:12.686Z,3.60
2018-03-25T01:18:39.649Z,3.50
2018-03-25T01:21:05.849Z,3.40
2018-03-25T01:23:32.853Z,3.50
2018-03-25T01:25:59.033Z,3.50
2018-03-25T01:28:25.952Z,3.60
2018-03-25T01:30:52.208Z,3.50
2018-03-25T01:33:19.190Z,3.50
2018-03-25T01:35:45.440Z,3.50
2018-03-25T01:38:11.665Z,3.40
2018-03-25T01:40:37.945Z,3.40
2018-03-25T01:43:04.920Z,3.20
2018-03-25T01:45:31.118Z,3.20
2018-03-25T01:47:57.328Z,3.20
2018-03-25T01:50:23.518Z,3.20
2018-03-25T01:52:49.755Z,3.30
2018-03-25T01:55:16.036Z,3.30
2018-03-25T01:57:42.254Z,3.30
2018-03-25T02:00:09.229Z,3.30
2018-03-25T02:02:35.425Z,3.30
2018-03-25T02:05:01.663Z,3.30
2018-03-25T02:07:27.872Z,3.30
2018-03-25T02:09:54.093Z,3.30
2018-03-25T02:12:20.283Z,3.30
2018-03-25T02:14:46.521Z,3.40
2018-03-25T02:17:12.780Z,3.40
2018-03-25T02:19:39.022Z,3.40
2018-03-25T02:22:06.029Z,3.30
2018-03-25T02:24:32.223Z,3.30
2018-03-25T02:26:58.501Z,3.30
2018-03-25T02:29:24.743Z,3.20
2018-03-25T02:31:50.954Z,3.20
2018-03-25T02:34:17.197Z,3.20
2018-03-25T02:36:43.394Z,3.20
2018-03-25T02:39:09.672Z,3.20
2018-03-25T02:41:35.874Z,3.20
2018-03-25T02:44:02.098Z,3.20
2018-03-25T02:46:28.337Z,3.20
2018-03-25T02:48:54.552Z,3.20
2018-03-25T02:51:20.763Z,3.20
2018-03-25T02:53:46.956Z,3.10
2018-03-25T02:56:13.190Z,3.10
2018-03-25T02:58:39.407Z,3.00
2018-03-25T03:01:05.676Z,3.00
2018-03-25T03:03:31.860Z,2.90
2018-03-25T03:05:58.114Z,2.80
2018-03-25T03:08:24.354Z,2.70
2018-03-25T03:10:50.626Z,2.70
2018-03-25T03:13:16.922Z,2.60
2018-03-25T03:15:43.152Z,2.60
2018-03-25T03:18:09.357Z,2.50
2018-03-25T03:20:35.594Z,2.50
2018-03-25T03:23:01.822Z,2.50
2018-03-25T03:25:28.028Z,2.40
2018-03-25T03:27:54.205Z,2.50
2018-03-25T03:30:20.434Z,2.40
2018-03-25T03:32:46.659Z,2.50
2018-03-25T03:35:12.844Z,2.40
2018-03-25T03:37:39.127Z,2.50
2018-03-25T03:40:05.329Z,2.40
2018-03-25T03:42:31.535Z,2.40
2018-03-25T03:44:57.801Z,2.40
2018-03-25T03:47:24.059Z,2.50
2018-03-25T03:49:50.325Z,2.50
2018-03-25T03:52:16.542Z,2.50
2018-03-25T03:54:42.784Z,2.50
2018-03-25T03:57:09.002Z,2.50
2018-03-25T03:59:35.194Z,2.40
2018-03-25T04:02:02.184Z,2.40
2018-03-25T04:04:28.391Z,2.40
2018-03-25T04:06:54.657Z,2.40
2018-03-25T04:09:20.864Z,2.50
2018-03-25T04:11:47.073Z,2.50
2018-03-25T04:14:13.365Z,2.50
2018-03-25T04:16:40.393Z,2.50
2018-03-25T04:19:06.620Z,2.50
2018-03-25T04:21:32.839Z,2.50
2018-03-25T04:23:59.074Z,2.50
2018-03-25T04:26:25.318Z,2.40
2018-03-25T04:28:51.756Z,2.40
2018-03-25T04:31:18.032Z,2.40
2018-03-25T04:33:44.274Z,2.40
2018-03-25T04:36:10.516Z,2.40
2018-03-25T04:38:36.794Z,2.40
2018-03-25T04:41:03.001Z,2.50
2018-03-25T04:43:29.234Z,2.50
2018-03-25T04:45:56.145Z,2.50
2018-03-25T04:48:22.412Z,2.50
2018-03-25T04:50:49.397Z,2.50
2018-03-25T04:53:15.633Z,2.40
2018-03-25T04:55:41.936Z,2.50
2018-03-25T04:58:08.141Z,2.50
2018-03-25T05:00:34.381Z,2.60
2018-03-25T05:03:00.620Z,2.60
2018-03-25T05:05:26.865Z,2.50
2018-03-25T05:07:53.102Z,2.50
2018-03-25T05:10:19.322Z,2.40
2018-03-25T05:12:45.573Z,2.40
2018-03-25T05:15:11.813Z,2.30
2018-03-25T05:17:38.064Z,2.40
2018-03-25T05:20:05.088Z,2.30
2018-03-25T05:22:31.291Z,2.30
2018-03-25T05:24:57.533Z,2.20
2018-03-25T05:27:23.777Z,2.30
2018-03-25T05:29:50.040Z,2.20
2018-03-25T05:32:17.012Z,2.20
2018-03-25T05:34:43.220Z,2.10
2018-03-25T05:37:09.431Z,2.10
2018-03-25T05:39:36.369Z,2.10
2018-03-25T05:42:03.319Z,2.00
2018-03-25T05:44:30.295Z,2.00
2018-03-25T05:46:56.528Z,2.00
2018-03-25T05:49:22.764Z,2.10
2018-03-25T05:51:49.016Z,2.10
2018-03-25T05:54:15.269Z,2.20
2018-03-25T05:56:42.230Z,2.30
2018-03-25T05:59:09.192Z,2.30
2018-03-25T06:01:35.406Z,2.20
2018-03-25T06:04:02.364Z,2.30
2018-03-25T06:06:28.591Z,2.30
2018-03-25T06:08:54.805Z,2.30
2018-03-25T06:11:21.765Z,2.30
2018-03-25T06:13:47.981Z,2.20
2018-03-25T06:16:15.012Z,2.20
2018-03-25T06:18:41.978Z,2.30
2018-03-25T06:21:09.305Z,2.20
2018-03-25T06:23:35.497Z,2.30
2018-03-25T06:26:01.717Z,2.20
2018-03-25T06:28:27.943Z,2.20
2018-03-25T06:30:54.152Z,2.20
2018-03-25T06:33:20.497Z,2.20
2018-03-25T06:35:46.697Z,2.20
2018-03-25T06:38:13.008Z,2.30
2018-03-25T06:40:39.410Z,2.40
2018-03-25T06:43:05.673Z,2.30
2018-03-25T06:45:31.883Z,2.40
2018-03-25T06:47:58.118Z,2.50
2018-03-25T06:50:24.306Z,2.50
2018-03-25T06:52:50.518Z,2.50
2018-03-25T06:55:16.704Z,2.60
2018-03-25T06:57:44.971Z,2.60
2018-03-25T07:00:12.003Z,2.70
2018-03-25T07:02:38.252Z,2.60
2018-03-25T07:05:04.484Z,2.80
2018-03-25T07:07:30.794Z,2.80
2018-03-25T07:09:57.135Z,2.90
2018-03-25T07:12:25.228Z,3.00
2018-03-25T07:14:52.192Z,3.00
2018-03-25T07:17:18.416Z,3.00
2018-03-25T07:19:45.486Z,3.10
2018-03-25T07:22:11.743Z,3.10
2018-03-25T07:24:38.080Z,3.20
2018-03-25T07:27:04.277Z,3.20
2018-03-25T07:29:30.521Z,3.30
2018-03-25T07:31:56.770Z,3.40
2018-03-25T07:34:22.960Z,3.40
2018-03-25T07:36:49.212Z,3.40
2018-03-25T07:39:15.451Z,3.50
2018-03-25T07:41:41.707Z,3.50
2018-03-25T07:44:08.669Z,3.70
2018-03-25T07:46:34.876Z,3.60
2018-03-25T07:49:01.865Z,3.80
2018-03-25T07:51:28.105Z,3.70
2018-03-25T07:53:54.332Z,3.80
2018-03-25T07:56:20.541Z,3.90
2018-03-25T07:58:46.771Z,4.00
2018-03-25T08:01:13.042Z,4.00
2018-03-25T08:03:39.293Z,4.10
2018-03-25T08:06:07.340Z,4.30
2018-03-25T08:08:33.544Z,4.20
2018-03-25T08:10:59.757Z,4.30
2018-03-25T08:13:25.996Z,4.40
2018-03-25T08:15:52.225Z,4.50
2018-03-25T08:18:18.443Z,4.60
2018-03-25T08:20:44.626Z,4.80
2018-03-25T08:23:11.606Z,5.00
2018-03-25T08:25:37.836Z,5.00
2018-03-25T08:28:04.092Z,5.20
2018-03-25T08:30:30.279Z,5.30
2018-03-25T08:32:56.484Z,5.40
2018-03-25T08:35:22.682Z,5.50
2018-03-25T08:37:48.884Z,5.50
2018-03-25T08:40:15.165Z,5.60
2018-03-25T08:42:41.361Z,5.70
2018-03-25T08:45:07.585Z,5.70
2018-03-25T08:47:33.824Z,5.80
2018-03-25T08:50:00.070Z,5.90
2018-03-25T08:52:27.072Z,5.90
2018-03-25T08:54:53.327Z,5.90
2018-03-25T08:57:19.503Z,6.00
2018-03-25T08:59:45.775Z,6.10
2018-03-25T09:02:12.034Z,6.20
2018-03-25T09:04:38.991Z,6.20
2018-03-25T09:07:05.281Z,6.20
2018-03-25T09:09:31.464Z,6.30
2018-03-25T09:11:57.656Z,6.30
2018-03-25T09:14:23.921Z,6.40
2018-03-25T09:16:50.148Z,6.40
2018-03-25T09:19:16.429Z,6.40
2018-03-25T09:21:42.720Z,6.40
2018-03-25T09:24:08.967Z,6.50
2018-03-25T09:26:35.192Z,6.50
2018-03-25T09:29:01.400Z,6.50
2018-03-25T09:31:27.615Z,6.60
2018-03-25T09:33:53.840Z,6.60
2018-03-25T09:36:20.054Z,6.90
2018-03-25T09:38:46.302Z,6.90
2018-03-25T09:41:16.014Z,6.90
2018-03-25T09:43:42.236Z,7.00
2018-03-25T09:46:08.473Z,7.10
2018-03-25T09:48:34.692Z,7.10
2018-03-25T09:51:00.959Z,7.20
2018-03-25T09:53:27.192Z,7.30
2018-03-25T09:55:53.419Z,7.40
2018-03-25T09:58:19.614Z,7.40
2018-03-25T10:00:48.911Z,7.40
2018-03-25T10:03:15.178Z,7.50
2018-03-25T10:05:41.407Z,7.60
2018-03-25T10:08:07.612Z,7.70
2018-03-25T10:10:33.846Z,7.80
2018-03-25T10:13:00.082Z,8.10
2018-03-25T10:15:26.282Z,8.10
2018-03-25T10:17:52.561Z,8.10
2018-03-25T10:20:18.789Z,8.20
2018-03-25T10:22:45.036Z,8.30
2018-03-25T10:25:12.029Z,8.30
2018-03-25T10:27:38.372Z,8.30
2018-03-25T10:30:04.609Z,8.50
2018-03-25T10:32:30.860Z,8.60
2018-03-25T10:34:57.812Z,8.60
2018-03-25T10:37:24.051Z,8.60
2018-03-25T10:39:51.021Z,8.70
2018-03-25T10:42:17.241Z,8.70
2018-03-25T10:44:43.453Z,8.80
2018-03-25T10:47:09.684Z,8.90
2018-03-25T10:49:35.934Z,8.90
2018-03-25T10:52:02.209Z,8.90
2018-03-25T10:54:28.472Z,9.00
2018-03-25T10:56:54.734Z,9.20
2018-03-25T10:59:20.999Z,9.30
2018-03-25T11:01:47.316Z,9.30
2018-03-25T11:04:13.576Z,9.30
2018-03-25T11:06:40.539Z,9.30
2018-03-25T11:09:07.148Z,9.30
2018-03-25T11:11:42.230Z,9.70
2018-03-25T11:14:08.481Z,9.60
2018-03-25T11:16:36.760Z,9.60
2018-03-25T11:19:06.726Z,9.60
2018-03-25T11:21:33.005Z,9.70
2018-03-25T11:27:03.847Z,9.80
2018-03-25T11:29:30.060Z,9.80
2018-03-25T11:31:56.312Z,9.90
2018-03-25T11:34:22.567Z,9.90
2018-03-25T11:36:48.805Z,9.90
2018-03-25T11:39:15.740Z,10.20
2018-03-25T11:41:42.931Z,10.10
2018-03-25T11:44:09.215Z,10.10
2018-03-25T11:46:35.437Z,10.10
2018-03-25T11:49:01.656Z,10.30
2018-03-25T11:51:27.841Z,10.40
2018-03-25T11:53:54.020Z,10.40
2018-03-25T11:56:20.260Z,10.40
2018-03-25T11:58:46.474Z,10.60
2018-03-25T12:01:13.507Z,10.50
2018-03-25T12:03:39.728Z,10.50
2018-03-25T12:06:05.962Z,10.70
2018-03-25T12:08:32.252Z,11.00
2018-03-25T12:10:58.446Z,10.90
2018-03-25T12:13:24.701Z,11.00
2018-03-25T12:15:50.965Z,11.10
2018-03-25T12:18:17.178Z,11.40
2018-03-25T12:20:43.423Z,11.40
2018-03-25T12:23:09.699Z,11.40
2018-03-25T12:25:36.652Z,11.30
2018-03-25T12:28:03.673Z,11.90
2018-03-25T12:30:29.872Z,11.80
2018-03-25T12:32:56.113Z,11.80
2018-03-25T12:35:22.357Z,11.70
2018-03-25T12:37:48.594Z,11.60
2018-03-25T12:40:14.825Z,11.50
2018-03-25T12:42:41.158Z,11.50
2018-03-25T12:45:08.143Z,11.50
2018-03-25T12:47:34.323Z,11.50
2018-03-25T12:50:00.608Z,11.50
2018-03-25T12:52:26.882Z,11.60
2018-03-25T12:54:53.103Z,11.60
2018-03-25T12:57:19.315Z,11.80
2018-03-25T12:59:45.551Z,12.00
2018-03-25T13:02:11.837Z,12.10
2018-03-25T13:04:38.111Z,12.10
2018-03-25T13:07:04.411Z,12.20
2018-03-25T13:09:30.655Z,12.20
2018-03-25T13:11:56.889Z,12.30
2018-03-25T13:14:23.098Z,12.30
2018-03-25T13:16:49.261Z,12.20
2018-03-25T13:19:15.480Z,12.30
2018-03-25T13:21:41.732Z,12.30
2018-03-25T13:24:08.673Z,12.50
2018-03-25T13:26:35.621Z,12.70
2018-03-25T13:29:02.662Z,12.90
2018-03-25T13:31:28.904Z,12.80
2018-03-25T13:33:55.844Z,13.00
2018-03-25T13:36:22.808Z,12.80
2018-03-25T13:38:49.064Z,12.80
2018-03-25T13:41:15.337Z,12.90
2018-03-25T13:43:42.329Z,13.10
2018-03-25T13:46:08.533Z,13.00
2018-03-25T13:48:35.480Z,13.50
2018-03-25T13:51:01.709Z,13.40
2018-03-25T13:53:27.983Z,13.30
2018-03-25T13:55:54.259Z,13.20
2018-03-25T13:58:20.482Z,13.10
2018-03-25T14:00:46.759Z,13.00
2018-03-25T14:03:12.989Z,13.00
2018-03-25T14:05:39.281Z,12.90
2018-03-25T14:08:05.560Z,12.90
2018-03-25T14:10:31.833Z,13.80
2018-03-25T14:12:58.104Z,14.30
2018-03-25T14:15:24.332Z,14.10
2018-03-25T14:17:50.566Z,13.80
2018-03-25T14:20:16.768Z,13.60
2018-03-25T14:22:42.996Z,13.80
2018-03-25T14:25:09.307Z,14.00
2018-03-25T14:27:35.557Z,14.20
2018-03-25T14:30:02.560Z,14.20
2018-03-25T14:32:29.546Z,14.10
2018-03-25T14:34:55.832Z,14.10
2018-03-25T14:37:22.062Z,14.00
2018-03-25T14:39:49.060Z,14.10
2018-03-25T14:42:15.282Z,14.10
2018-03-25T14:44:41.580Z,14.10
2018-03-25T14:47:08.532Z,13.80
2018-03-25T14:49:34.804Z,13.70
2018-03-25T14:52:01.036Z,13.70
2018-03-25T14:54:27.315Z,13.60
2018-03-25T14:56:53.525Z,13.50
2018-03-25T14:59:19.772Z,13.80
2018-03-25T15:01:46.775Z,13.70
2018-03-25T15:04:13.052Z,13.70
2018-03-25T15:06:39.241Z,13.60
2018-03-25T15:09:05.631Z,13.60
2018-03-25T15:11:31.808Z,13.50
2018-03-25T15:13:57.996Z,13.40
2018-03-25T15:16:24.250Z,13.40
2018-03-25T15:18:50.464Z,13.60
2018-03-25T15:21:16.757Z,13.60
2018-03-25T15:23:42.920Z,13.60
2018-03-25T15:26:09.168Z,13.50
2018-03-25T15:28:35.422Z,13.40
2018-03-25T15:31:02.402Z,13.30
2018-03-25T15:33:28.681Z,13.30
2018-03-25T15:35:54.893Z,13.20
2018-03-25T15:38:21.249Z,13.30
2018-03-25T15:40:47.417Z,13.30
2018-03-25T15:43:13.642Z,13.30
2018-03-25T15:45:39.914Z,13.30
2018-03-25T15:48:06.084Z,13.20
2018-03-25T15:50:32.338Z,13.10
2018-03-25T15:52:58.558Z,13.10
2018-03-25T15:55:24.805Z,13.10
2018-03-25T15:57:51.028Z,13.00
2018-03-25T16:00:17.296Z,13.10
2018-03-25T16:02:43.542Z,13.00
2018-03-25T16:05:10.489Z,13.00
2018-03-25T16:07:37.455Z,13.10
2018-03-25T16:10:03.682Z,13.00
2018-03-25T16:12:29.934Z,13.00
2018-03-25T16:14:56.281Z,13.10
2018-03-25T16:17:22.466Z,13.10
2018-03-25T16:19:48.734Z,13.10
2018-03-25T16:22:14.920Z,13.10
2018-03-25T16:24:41.118Z,13.10
2018-03-25T16:27:08.140Z,13.10
2018-03-25T16:29:34.432Z,13.00
2018-03-25T16:32:00.614Z,13.10
2018-03-25T16:34:26.834Z,13.10
2018-03-25T16:36:53.104Z,13.10
2018-03-25T16:39:23.051Z,13.10
2018-03-25T16:41:49.288Z,13.10
2018-03-25T16:44:15.564Z,13.10
2018-03-25T16:46:41.798Z,13.00
2018-03-25T16:49:08.041Z,13.00
2018-03-25T16:51:34.303Z,12.90
2018-03-25T16:54:00.584Z,12.90
2018-03-25T16:59:36.603Z,12.80
2018-03-25T17:02:02.807Z,12.80
2018-03-25T17:04:29.013Z,12.70
2018-03-25T17:06:55.237Z,12.70
2018-03-25T17:09:22.153Z,12.60
2018-03-25T17:11:48.397Z,12.50
2018-03-25T17:14:14.628Z,12.60
2018-03-25T17:16:40.924Z,12.50
2018-03-25T17:19:07.136Z,12.50
2018-03-25T17:21:35.426Z,12.50
2018-03-25T17:24:01.638Z,12.40
2018-03-25T17:26:27.836Z,12.40
2018-03-25T17:28:54.084Z,12.40
2018-03-25T17:31:20.320Z,12.40
2018-03-25T17:33:46.539Z,12.40
2018-03-25T17:36:12.792Z,12.40
2018-03-25T17:38:38.989Z,12.40
2018-03-25T17:41:05.249Z,12.40
2018-03-25T17:43:31.467Z,12.40
2018-03-25T17:45:57.729Z,12.40
2018-03-25T17:48:23.988Z,12.40
2018-03-25T17:50:50.217Z,12.40
2018-03-25T17:53:16.440Z,12.30
2018-03-25T17:55:43.424Z,12.30
2018-03-25T17:58:09.669Z,12.20
2018-03-25T18:00:35.899Z,12.20
2018-03-25T18:03:02.156Z,12.20
2018-03-25T18:05:29.113Z,12.10
2018-03-25T18:07:56.089Z,12.00
2018-03-25T18:10:22.308Z,12.00
2018-03-25T18:12:48.581Z,12.00
2018-03-25T18:15:14.819Z,11.90
2018-03-25T18:17:40.998Z,11.90
2018-03-25T18:20:07.234Z,11.80
2018-03-25T18:22:33.442Z,11.70
2018-03-25T18:24:59.667Z,11.60
2018-03-25T18:27:25.881Z,11.50
2018-03-25T18:29:52.808Z,11.30
2018-03-25T18:32:19.094Z,11.30
2018-03-25T18:34:45.296Z,11.20
2018-03-25T18:37:11.583Z,11.10
2018-03-25T18:39:37.732Z,11.00
2018-03-25T18:42:04.724Z,10.60
2018-03-25T18:44:30.992Z,10.50
2018-03-25T18:46:57.212Z,10.30
2018-03-25T18:49:23.547Z,10.20
2018-03-25T18:51:49.774Z,10.10
2018-03-25T18:54:16.271Z,10.10
2018-03-25T18:56:42.486Z,10.10
2018-03-25T18:59:08.748Z,10.00
2018-03-25T19:01:35.017Z,10.10
2018-03-25T19:04:01.982Z,10.00
2018-03-25T19:06:28.196Z,10.00
2018-03-25T19:08:54.502Z,10.10
2018-03-25T19:11:20.708Z,9.90
2018-03-25T19:13:47.122Z,9.90
2018-03-25T19:16:13.383Z,9.90
2018-03-25T19:18:39.609Z,9.80
2018-03-25T19:21:05.856Z,9.70
2018-03-25T19:23:32.816Z,9.70
2018-03-25T19:25:59.033Z,9.60
2018-03-25T19:28:25.996Z,9.60
2018-03-25T19:30:52.200Z,9.50
2018-03-25T19:33:18.483Z,9.50
2018-03-25T19:35:44.762Z,9.40
2018-03-25T19:38:11.750Z,9.40
2018-03-25T19:40:37.941Z,9.30
2018-03-25T19:43:04.945Z,9.20
2018-03-25T19:45:31.212Z,9.20
2018-03-25T19:47:58.176Z,9.10
2018-03-25T19:50:24.417Z,9.10
2018-03-25T19:52:50.662Z,9.10
2018-03-25T19:55:16.842Z,9.10
2018-03-25T19:57:43.896Z,8.80
2018-03-25T20:00:10.126Z,8.70
2018-03-25T20:02:38.203Z,8.80
2018-03-25T20:05:04.482Z,8.70
2018-03-25T20:07:30.676Z,8.80
2018-03-25T20:09:56.931Z,8.80
2018-03-25T20:12:23.168Z,8.90
2018-03-25T20:14:49.404Z,8.90
2018-03-25T20:17:15.728Z,8.80
2018-03-25T20:19:41.969Z,8.60
2018-03-25T20:22:08.217Z,8.50
2018-03-25T20:24:35.159Z,8.50
2018-03-25T20:27:02.193Z,8.40
2018-03-25T20:29:28.408Z,8.40
2018-03-25T20:31:54.624Z,8.40
2018-03-25T20:34:20.848Z,8.30
2018-03-25T20:36:47.090Z,8.20
2018-03-25T20:39:13.321Z,8.30
2018-03-25T20:41:39.656Z,8.40
2018-03-25T20:44:05.889Z,8.40
2018-03-25T20:46:32.109Z,8.40
2018-03-25T20:48:59.085Z,8.30
2018-03-25T20:51:25.394Z,8.30
2018-03-25T20:53:51.614Z,8.30
2018-03-25T20:56:17.866Z,8.00
2018-03-25T20:58:44.827Z,7.50
2018-03-25T21:01:11.031Z,7.50
2018-03-25T21:03:37.247Z,7.50
2018-03-25T21:06:03.483Z,7.70
2018-03-25T21:08:29.733Z,7.60
2018-03-25T21:10:56.710Z,7.50
2018-03-25T21:13:22.984Z,7.40
2018-03-25T21:15:49.202Z,7.50
2018-03-25T21:18:16.262Z,7.50
2018-03-25T21:20:42.460Z,7.50
2018-03-25T21:23:08.659Z,7.50
2018-03-25T21:25:34.921Z,7.40
2018-03-25T21:28:01.150Z,7.50
2018-03-25T21:30:27.444Z,7.60
2018-03-25T21:32:53.706Z,7.60
2018-03-25T21:35:19.935Z,7.60
2018-03-25T21:37:46.169Z,7.60
2018-03-25T21:40:12.425Z,7.50
2018-03-25T21:42:39.426Z,7.40
2018-03-25T21:45:05.679Z,7.40
2018-03-25T21:47:31.948Z,7.50
2018-03-25T21:49:58.157Z,7.50
2018-03-25T21:52:25.215Z,7.50
2018-03-25T21:54:51.438Z,7.50
2018-03-25T21:57:18.376Z,7.60
2018-03-25T21:59:44.715Z,7.50
2018-03-25T22:02:12.329Z,7.40
2018-03-25T22:04:38.555Z,7.30
2018-03-25T22:07:05.806Z,7.30
2018-03-25T22:09:32.045Z,7.20
2018-03-25T22:11:58.280Z,7.20
2018-03-25T22:14:24.532Z,7.20
2018-03-25T22:16:50.765Z,7.20
2018-03-25T22:19:17.309Z,7.30
2018-03-25T22:21:43.594Z,7.20
2018-03-25T22:24:09.913Z,7.10
2018-03-25T22:26:36.196Z,7.20
2018-03-25T22:29:02.476Z,7.10
2018-03-25T22:31:29.789Z,7.10
2018-03-25T22:33:56.010Z,7.10
2018-03-25T22:36:22.212Z,7.10
2018-03-25T22:38:48.485Z,7.10
2018-03-25T22:41:14.737Z,7.10
2018-03-25T22:43:40.974Z,7.10
2018-03-25T22:46:07.175Z,7.00
2018-03-25T22:48:33.506Z,6.90
2018-03-25T22:50:59.713Z,6.90
2018-03-25T22:53:25.938Z,6.80
2018-03-25T22:55:52.152Z,6.70
2018-03-25T22:58:18.365Z,6.60
2018-03-25T23:00:44.756Z,6.50
2018-03-25T23:03:11.041Z,6.40
2018-03-25T23:05:37.993Z,6.50
2018-03-25T23:08:04.252Z,6.40
2018-03-25T23:10:30.489Z,6.50
2018-03-25T23:12:56.712Z,6.50
2018-03-25T23:15:22.932Z,6.40
2018-03-25T23:17:49.146Z,6.40
2018-03-25T23:20:15.389Z,6.30
2018-03-25T23:22:41.626Z,6.30
2018-03-25T23:25:07.889Z,6.20
2018-03-25T23:27:34.174Z,6.20
2018-03-25T23:30:00.389Z,6.10
2018-03-25T23:32:26.577Z,6.10
2018-03-25T23:34:53.579Z,6.00
2018-03-25T23:37:19.811Z,6.00
2018-03-25T23:39:46.042Z,6.00
2018-03-25T23:42:12.295Z,6.10
2018-03-25T23:44:38.496Z,6.00
2018-03-25T23:47:04.689Z,6.00
2018-03-25T23:49:30.931Z,5.90
2018-03-25T23:51:57.194Z,5.80
2018-03-25T23:54:23.456Z,5.80
2018-03-25T23:56:49.696Z,5.90
2018-03-25T23:59:15.896Z,5.90
